Wrightstown, Wisconsin
Current Conditions -  °F | °C
As of 11:53 AM on Saturday 25 Oct 2014 (Local Time) from KGRB Reporting Station
Clear Clear  
Wind Chill: 62°   Ceiling: Unl
Heat Index: 62°   Visibility: 10mi
Dew Point: 34°   Wind: 21mph
Humidity: 35%   Direction: 290°WNW
Pressure: 29.83"   Gusts: 32mph
Location:  44.33°N, 88.16°W
Report Text: KGRB 251653Z 29018G28KT 10SM CLR 17/01 A2983 RMK AO2 PK WND 29028/1652 SLP103 T01670011
Loading
Personal Weather Stations






























Interactive Weather Map New forecast layout! Learn more

10-Day Weather Forecast

Advertisements
Track Severe Weather on mobile